• Join FlightAware (Why Join?)
  • Login
  • US Flag 
03:26PM EDT


 

Airport Tracker/Info


-or-


 

Live Flight TrackerFlight Track Log ✈ DAL1103 ✈ 03-Nov-2013 ✈ KMSP - KFLL

Flight Track Log - Related Links

Times and Time Zones

All times are in EST time to prevent confusion due to time zone crossing. See the DAL1103 flight status page for this flight to view local times or setup timezone preferences in your user account.

Time Position Orientation Groundspeed Altitude Reporting Facility
EST Latitude Longitude Course Direction KTS MPH feet Rate Location/Type
11:15AM 44.8500 -93.2333 125° Southeast 148 170 2,300  Level Minneapolis TRACON
11:15AM 44.8297 -93.1942 126° Southeast 184 212 3,200 1,980 Climbing Minneapolis Center
11:16AM 44.7858 -93.1258 132° Southeast 232 267 5,900 2,580 Climbing Minneapolis Center
11:17AM 44.5588 -92.9211 90° East  Level Estimated
11:17AM 44.7339 -93.0511 134° Southeast 261 300 8,600  Level Minneapolis Center
11:18AM 44.4510 -92.8217 120° Southeast  Level Estimated
11:18AM 44.6764 -92.9647 133° Southeast 297 342 10,300  Level Minneapolis Center
11:19AM 44.3430 -92.7225 115° Southeast  Level Estimated
11:20AM 44.2349 -92.6238 125° Southeast  Level Estimated
11:20AM 44.6128 -92.8614 131° Southeast 346 398 12,300  Level Minneapolis Center
11:21AM 44.5403 -92.7508 133° Southeast 380 437 13,800 1,500 Climbing Minneapolis Center
11:22AM 44.4608 -92.6294 132° Southeast 419 482 15,400 1,680 Climbing Minneapolis Center
11:23AM 44.3764 -92.5033 133° Southeast 442 509 17,300 1,920 Climbing Minneapolis Center
11:24AM 44.2875 -92.3292 125° Southeast 457 526 19,400 1,740 Climbing Minneapolis Center
11:25AM 44.2181 -92.1683 121° Southeast 476 548 20,900 1,440 Climbing Minneapolis Center
11:26AM 44.1472 -92.0069 121° Southeast 487 560 22,400 1,320 Climbing Minneapolis Center
11:27AM 44.0753 -91.8411 121° Southeast 497 572 23,700 1,320 Climbing Minneapolis Center
11:28AM 44.0019 -91.6736 121° Southeast 506 582 25,200 1,380 Climbing Minneapolis Center
11:29AM 43.9294 -91.5108 122° Southeast 509 586 26,600 1,440 Climbing Minneapolis Center
11:30AM 43.8189 -91.4028 145° Southeast 498 573 28,200 1,380 Climbing Minneapolis Center
11:31AM 43.6764 -91.3039 153° Southeast 483 556 29,500 1,140 Climbing Minneapolis Center
11:32AM 43.5583 -91.2186 152° Southeast 480 552 30,600 960 Climbing Minneapolis Center
11:33AM 43.4400 -91.1361 153° Southeast 479 551 31,500 780 Climbing Minneapolis Center
11:34AM 43.3692 -91.0867 153° Southeast 476 548 32,000 600 Climbing Chicago Center
11:35AM 43.2283 -90.9861 153° Southeast 476 548 32,600 480 Climbing Chicago Center
11:36AM 43.1092 -90.9014 153° Southeast 479 551 33,000 180 Climbing Chicago Center
11:37AM 42.9908 -90.8186 153° Southeast 479 551 33,000  Level Chicago Center
11:38AM 42.8725 -90.7353 153° Southeast 479 551 33,000  Level Chicago Center
11:39AM 42.7536 -90.6542 153° Southeast 479 551 33,000  Level Chicago Center
11:40AM 42.6344 -90.5728 153° Southeast 480 552 33,000  Level Chicago Center
11:41AM 42.4922 -90.4769 154° Southeast 478 550 33,000  Level Chicago Center
11:42AM 42.3739 -90.3958 153° Southeast 478 550 33,000  Level Chicago Center
11:43AM 42.2556 -90.3169 154° Southeast 476 548 33,000  Level Chicago Center
11:44AM 42.1381 -90.2358 153° Southeast 476 548 33,000  Level Chicago Center
11:46AM 41.9661 -90.1135 152° Southeast  Level FlightAware Approximate
11:51AM 41.2800 -89.6661 158° South 476 548 33,000  Level Chicago Center
11:52AM 41.1614 -89.5889 154° Southeast 474 545 33,000  Level Chicago Center
11:53AM 41.1847 -89.6054 154° Southeast  Level FlightAware Approximate
11:53AM 41.0389 -89.5239 158° South 471 542 33,000  Level Chicago Center
11:54AM 41.0703 -89.5420 159° South  Level FlightAware Approximate
11:54AM 40.8908 -89.4483 159° South 470 541 33,000  Level Chicago Center
11:55AM 40.9546 -89.4822 159° South  Level FlightAware Approximate
11:55AM 40.7675 -89.3844 159° South 470 541 33,000  Level Chicago Center
11:56AM 40.8389 -89.4227 159° South  Level FlightAware Approximate
11:56AM 40.6436 -89.3194 158° South 472 543 33,000  Level Chicago Center
11:57AM 40.7232 -89.3633 159° South  Level FlightAware Approximate
11:57AM 40.5197 -89.2558 159° South 475 547 33,000  Level Chicago Center
11:58AM 40.6075 -89.3041 159° South  Level FlightAware Approximate
11:58AM 40.3964 -89.1900 158° South 476 548 33,000  Level Chicago Center
11:59AM 40.4922 -89.2436 158° South  Level FlightAware Approximate
11:59AM 40.2736 -89.1264 158° South 475 547 33,000  Level Chicago Center
12:00PM 40.3772 -89.1824 158° South  Level FlightAware Approximate
12:01PM 40.2621 -89.1214 158° South  Level FlightAware Approximate
12:01PM 40.1492 -89.0644 159° South 478 550 33,000  Level Chicago Center
12:02PM 40.0011 -88.9875 158° South 479 551 33,000  Level Chicago Center
12:03PM 39.8764 -88.9231 158° South 483 556 33,000  Level Chicago Center
12:04PM 39.7514 -88.8578 158° South 486 559 33,000  Level Chicago Center
12:04PM 39.6750 -88.8161 157° South 483 556 33,000  Level Indianapolis Center
12:05PM 39.5450 -88.7328 154° Southeast 489 563 33,000  Level Indianapolis Center
12:06PM 39.4239 -88.6572 154° Southeast 485 558 33,000  Level Indianapolis Center
12:07PM 39.2994 -88.5822 155° Southeast 488 562 33,000  Level Indianapolis Center
12:08PM 39.1778 -88.5072 154° Southeast 484 557 33,000  Level Indianapolis Center
12:09PM 39.0572 -88.4328 154° Southeast 481 554 33,000  Level Indianapolis Center
12:10PM 38.9353 -88.3594 155° Southeast 481 554 33,000  Level Indianapolis Center
12:11PM 38.8142 -88.2883 155° Southeast 479 551 33,000  Level Indianapolis Center
12:12PM 38.6928 -88.2164 155° Southeast 479 551 33,000  Level Indianapolis Center
12:13PM 38.5483 -88.1272 154° Southeast 480 552 33,000  Level Indianapolis Center
12:14PM 38.4275 -88.0539 155° Southeast 480 552 33,000  Level Indianapolis Center
12:16PM 38.3064 -87.9836 156° South 479 551 33,000  Level Indianapolis Center
12:17PM 38.1847 -87.9119 155° Southeast 481 554 33,000  Level Indianapolis Center
12:18PM 38.0633 -87.8397 155° Southeast 483 556 33,000  Level Indianapolis Center
12:19PM 37.9431 -87.7686 155° Southeast 481 554 33,000  Level Indianapolis Center
12:20PM 37.8228 -87.6956 154° Southeast 480 552 33,000  Level Indianapolis Center
12:21PM 37.6919 -87.6142 154° Southeast 480 552 33,000  Level Indianapolis Center
12:22PM 37.5708 -87.5394 154° Southeast 478 550 33,000  Level Indianapolis Center
12:23PM 37.4297 -87.4550 155° Southeast 477 549 33,000  Level Indianapolis Center
12:24PM 37.3086 -87.3808 154° Southeast 478 550 33,000  Level Indianapolis Center
12:25PM 37.1867 -87.3092 155° Southeast 479 551 33,000  Level Indianapolis Center
12:26PM 37.0886 -87.2467 153° Southeast 474 545 33,000  Level Memphis Center
12:27PM 36.9661 -87.1736 155° Southeast 474 545 33,000  Level Memphis Center
12:28PM 36.8581 -87.1106 155° Southeast 474 545 33,000  Level Memphis Center
12:29PM 36.7394 -87.0378 154° Southeast 468 539 33,000  Level Memphis Center
12:30PM 36.6186 -86.9650 154° Southeast 473 544 33,000  Level Memphis Center
12:31PM 36.5000 -86.8925 154° Southeast 473 544 33,000  Level Memphis Center
12:32PM 36.3708 -86.8208 156° South 479 551 33,000  Level Memphis Center
12:33PM 36.2369 -86.7367 153° Southeast 492 566 33,000  Level Memphis Center
12:34PM 36.1161 -86.6700 156° South 481 554 33,000  Level Memphis Center
12:35PM 35.9933 -86.6089 158° South 476 548 33,000  Level Memphis Center
12:37PM 35.6758 -86.4494 158° South 473 544 33,000  Level Atlanta Center
12:38PM 35.5519 -86.3922 159° South 473 544 33,000  Level Atlanta Center
12:39PM 35.4319 -86.3353 159° South 472 543 33,000  Level Atlanta Center
12:40PM 35.3058 -86.2733 158° South 472 543 33,000  Level Atlanta Center
12:41PM 35.1836 -86.2142 158° South 472 543 33,000  Level Atlanta Center
12:42PM 35.0514 -86.1497 158° South 472 543 33,000  Level Atlanta Center
12:43PM 34.9250 -86.0933 160° South 472 543 33,000  Level Atlanta Center
12:44PM 34.8050 -86.0272 156° South 467 537 33,000  Level Atlanta Center
12:45PM 34.6828 -85.9686 158° South 473 544 33,000  Level Atlanta Center
12:46PM 34.5564 -85.9078 158° South 473 544 33,000  Level Atlanta Center
12:47PM 34.4300 -85.8469 158° South 478 550 33,000  Level Atlanta Center
12:48PM 34.3244 -85.8019 161° South 469 540 33,000  Level Atlanta Center
12:49PM 34.1978 -85.7417 159° South 469 540 33,000  Level Atlanta Center
12:50PM 34.0775 -85.6839 158° South 477 549 33,000  Level Atlanta Center
12:51PM 33.9511 -85.6264 159° South 477 549 33,000  Level Atlanta Center
12:52PM 33.8286 -85.5692 159° South 477 549 33,000  Level Atlanta Center
12:53PM 33.7061 -85.5122 159° South 472 543 33,000  Level Atlanta Center
12:54PM 33.5817 -85.4550 159° South 472 543 33,000  Level Atlanta Center
12:55PM 33.4592 -85.3983 159° South 472 543 33,000  Level Atlanta Center
12:56PM 33.3344 -85.3417 159° South 473 544 33,000  Level Atlanta Center
12:57PM 33.2097 -85.2828 158° South 478 550 33,000  Level Atlanta Center
12:58PM 33.0769 -85.2214 159° South 467 537 33,000  Level Atlanta Center
12:59PM 32.9522 -85.1678 160° South 472 543 33,000  Level Atlanta Center
01:00PM 32.8272 -85.1339 167° South 466 536 33,000  Level Atlanta Center
01:01PM 32.7044 -85.0831 161° South 461 531 33,000  Level Atlanta Center
01:02PM 32.5733 -85.0372 164° South 473 544 33,000  Level Atlanta Center
01:03PM 32.4506 -84.9964 164° South 473 544 33,000  Level Atlanta Center
01:04PM 32.3278 -84.9558 164° South 473 544 33,000  Level Atlanta Center
01:06PM 32.0822 -84.8761 165° South 455 524 33,000  Level Jacksonville Center
01:07PM 31.9594 -84.8344 164° South 462 532 33,000  Level Jacksonville Center
01:08PM 31.8369 -84.7975 166° South 462 532 33,000  Level Jacksonville Center
01:09PM 31.7122 -84.7558 164° South 462 532 33,000  Level Jacksonville Center
01:10PM 31.5856 -84.7119 164° South 462 532 33,000  Level Jacksonville Center
01:11PM 31.4608 -84.6681 163° South 467 537 33,000  Level Jacksonville Center
01:12PM 31.3364 -84.6244 163° South 467 537 33,000  Level Jacksonville Center
01:13PM 31.2158 -84.5686 158° South 467 537 33,000  Level Jacksonville Center
01:14PM 31.0978 -84.5083 156° South 467 537 33,000  Level Jacksonville Center
01:15PM 30.9794 -84.4506 157° South 467 537 33,000  Level Jacksonville Center
01:16PM 30.8611 -84.3956 158° South 467 537 33,000  Level Jacksonville Center
01:17PM 30.7406 -84.3356 157° South 467 537 33,000  Level Jacksonville Center
01:18PM 30.6181 -84.2758 157° South 474 545 33,000  Level Jacksonville Center
01:19PM 30.4997 -84.2161 156° South 474 545 33,000  Level Jacksonville Center
01:20PM 30.3958 -84.1667 158° South 469 540 33,000  Level Jacksonville Center
01:21PM 30.2775 -84.1097 157° South 463 533 33,000  Level Jacksonville Center
01:22PM 30.1569 -84.0528 158° South 463 533 33,000  Level Jacksonville Center
01:23PM 30.0383 -83.9964 158° South 463 533 33,000  Level Jacksonville Center
01:24PM 29.9178 -83.9375 157° South 468 539 33,000  Level Jacksonville Center
01:25PM 29.7992 -83.8764 156° South 468 539 33,000  Level Jacksonville Center
01:26PM 29.6850 -83.8033 151° Southeast 468 539 33,000  Level Jacksonville Center
01:27PM 29.5706 -83.7306 151° Southeast 468 539 33,000  Level Jacksonville Center
01:28PM 29.4564 -83.6581 151° Southeast 473 544 33,000  Level Jacksonville Center
01:29PM 29.3439 -83.5858 151° Southeast 473 544 33,000  Level Jacksonville Center
01:30PM 29.2294 -83.5136 151° Southeast 473 544 33,000  Level Jacksonville Center
01:31PM 29.1172 -83.4417 151° Southeast 473 544 33,000  Level Jacksonville Center
01:32PM 29.0047 -83.3697 151° Southeast 473 544 33,000  Level Jacksonville Center
01:33PM 28.8964 -83.2817 145° Southeast 468 539 33,000  Level Jacksonville Center
01:34PM 28.8092 -83.1675 131° Southeast 473 544 33,000  Level Jacksonville Center
01:35PM 28.7194 -83.0583 133° Southeast 473 544 33,000  Level Jacksonville Center
01:36PM 28.6217 -82.9375 133° Southeast 473 544 33,000  Level Jacksonville Center
01:37PM 28.5486 -82.8336 129° Southeast 468 539 33,000  Level Jacksonville Center
01:38PM 28.4419 -82.7508 146° Southeast 462 532 33,000  Level Jacksonville Center
01:41PM 28.1542 -82.6064 156° South 462 532 33,000  Level Miami Center
01:42PM 28.0358 -82.5464 156° South 462 532 33,000  Level Miami Center
01:43PM 27.9189 -82.4933 158° South 457 526 33,000  Level Miami Center
01:44PM 27.7956 -82.4475 162° South 462 532 33,000 -360 Level Miami Center
01:45PM 27.6719 -82.4039 163° South 457 526 32,300 -1,020 Descending Miami Center
01:46PM 27.5631 -82.3636 162° South 457 526 31,000 -1,320 Descending Miami Center
01:47PM 27.4397 -82.3156 161° South 457 526 29,700 -1,500 Descending Miami Center
01:48PM 27.3261 -82.2283 146° Southeast 457 526 28,100 -1,500 Descending Miami Center
01:49PM 27.2228 -82.1419 143° Southeast 457 526 26,800 -1,320 Descending Miami Center
01:50PM 27.1236 -82.0533 141° Southeast 462 532 25,500 -1,140 Descending Miami Center
01:51PM 27.0328 -81.9725 142° Southeast 462 532 24,600 -840 Descending Miami Center
01:52PM 26.9319 -81.8656 137° Southeast 456 525 23,900 -300 Descending Miami Center
01:53PM 26.8456 -81.7711 136° Southeast 451 519 24,000  Climbing Miami Center
01:54PM 26.7569 -81.6744 136° Southeast 446 513 24,000 -660 Level Miami Center
01:55PM 26.6806 -81.5853 134° Southeast 439 505 22,700 -1,980 Descending Miami Center
01:56PM 26.5956 -81.4958 137° Southeast 432 497 20,100 -2,700 Descending Miami Center
01:57PM 26.5050 -81.3950 135° Southeast 432 497 17,400 -2,640 Descending Miami Center
01:58PM 26.4200 -81.3033 136° Southeast 427 491 14,900 -2,400 Descending Miami Center
01:59PM 26.3411 -81.2194 136° Southeast 410 472 12,600 -1,800 Descending Miami Center
02:00PM 26.2661 -81.1403 137° Southeast 394 453 11,400 -1,500 Descending Miami Center
02:00PM 26.2278 -81.1017 138° Southeast 317 365 10,300 -1,860 Descending Miami Center
02:00PM 26.2156 -81.0897 139° Southeast 313 360 10,000 -1,440 Descending Miami Center
02:01PM 26.2033 -81.0731 129° Southeast 353 406 9,700 -1,500 Descending Miami Center
02:02PM 26.1467 -81.0086 134° Southeast 306 352 8,200 -960 Descending Miami Center
02:02PM 26.1022 -80.9564 133° Southeast 278 320 8,000 -240 Descending Miami Center
02:03PM 26.1006 -80.9400 96° East 284 327 8,000 -600 Level Miami Center
02:03PM 26.0836 -80.8817 108° East 245 282 7,400 -900 Descending Miami Center
02:04PM 26.0839 -80.8678 89° East 257 296 7,100 -900 Descending Miami Center
02:04PM 26.0750 -80.8097 100° East 220 253 6,500 -840 Descending Miami Center
02:05PM 26.0817 -80.7983 57° Northeast 237 273 6,300 -540 Descending Miami Center
02:05PM 26.0767 -80.7450 96° East 204 235 6,000 -300 Descending Miami Center
02:06PM 26.0792 -80.7333 77° East 214 246 6,000  Level Miami Center
02:06PM 26.0764 -80.6778 93° East 205 236 6,000 -240 Level Miami Center
02:07PM 26.0786 -80.6711 70° East 208 239 5,800 -1,020 Descending Miami Center
02:07PM 26.0758 -80.6200 93° East 172 198 5,000 -900 Descending Miami Center
02:08PM 26.0803 -80.6156 42° Northeast 196 226 4,900  Descending Miami Center
02:08PM 26.0772 -80.5647 94° East 178 205 5,000  Climbing Miami Center
02:09PM 26.0794 -80.5600 62° Northeast 184 212 4,900  Descending Miami Center
02:10PM 26.0764 -80.5136 94° East 168 193 5,000  Climbing Miami Center
02:10PM 26.0808 -80.5092 42° Northeast 173 199 4,900  Descending Miami Center
02:11PM 26.0756 -80.4606 97° East 165 190 5,000 -360 Climbing Miami Center
02:12PM 26.0747 -80.4094 91° East 159 183 4,200 -900 Descending Miami Center
02:13PM 26.0739 -80.3586 91° East 163 188 3,200 -840 Descending Miami Center
02:14PM 26.0750 -80.3100 89° East 156 180 2,500 -840 Descending Miami Center
02:15PM 26.0742 -80.2617 91° East 158 182 1,600 -840 Descending Miami Center
02:16PM 26.0753 -80.2131 89° East 137 158 800 -840 Descending Miami Center